createdAt,value
2023-01-18T00:01:21.678Z,3.63
2023-01-18T00:03:48.820Z,3.70
2023-01-18T00:06:17.698Z,3.53
2023-01-18T00:08:44.721Z,3.63
2023-01-18T00:11:15.584Z,3.33
2023-01-18T00:13:45.903Z,3.03
2023-01-18T00:16:19.142Z,3.20
2023-01-18T00:18:57.475Z,3.28
2023-01-18T00:21:27.089Z,3.58
2023-01-18T00:23:57.481Z,3.42
2023-01-18T00:26:25.054Z,3.20
2023-01-18T00:28:56.461Z,3.75
2023-01-18T00:31:23.835Z,3.50
2023-01-18T00:33:51.162Z,3.50
2023-01-18T00:36:19.112Z,3.53
2023-01-18T00:38:51.527Z,3.88
2023-01-18T00:41:19.298Z,3.75
2023-01-18T00:43:46.474Z,3.70
2023-01-18T00:46:19.671Z,3.63
2023-01-18T00:48:49.044Z,4.22
2023-01-18T00:51:20.326Z,3.70
2023-01-18T00:53:47.729Z,4.00
2023-01-18T00:56:20.400Z,4.03
2023-01-18T00:58:47.626Z,4.65
2023-01-18T01:01:17.518Z,4.45
2023-01-18T01:04:02.985Z,4.22
2023-01-18T01:06:47.173Z,4.47
2023-01-18T01:09:29.057Z,4.50
2023-01-18T01:12:16.524Z,4.30
2023-01-18T01:15:05.816Z,4.97
2023-01-18T01:17:55.504Z,4.70
2023-01-18T01:20:42.553Z,4.15
2023-01-18T01:23:40.212Z,4.50
2023-01-18T01:26:09.258Z,3.97
2023-01-18T01:28:39.251Z,4.10
2023-01-18T01:31:11.556Z,4.65
2023-01-18T01:33:39.402Z,4.47
2023-01-18T01:36:09.936Z,4.32
2023-01-18T01:38:37.480Z,4.45
2023-01-18T01:41:07.709Z,5.03
2023-01-18T01:43:52.621Z,5.10
2023-01-18T01:46:29.892Z,5.38
2023-01-18T01:49:14.129Z,4.55
2023-01-18T01:51:52.225Z,5.07
2023-01-18T01:54:29.382Z,4.70
2023-01-18T01:57:06.086Z,5.43
2023-01-18T01:59:59.637Z,5.28
2023-01-18T02:02:27.642Z,5.30
2023-01-18T02:04:56.717Z,5.18
2023-01-18T02:07:26.417Z,5.13
2023-01-18T02:09:54.489Z,5.38
2023-01-18T02:12:22.708Z,5.53
2023-01-18T02:14:53.857Z,5.15
2023-01-18T02:17:32.828Z,5.45
2023-01-18T02:20:31.754Z,5.13
2023-01-18T02:23:17.547Z,5.80
2023-01-18T02:26:18.743Z,5.50
2023-01-18T02:28:59.847Z,5.05
2023-01-18T02:31:34.331Z,4.85
2023-01-18T02:34:13.589Z,4.97
2023-01-18T02:36:56.374Z,5.03
2023-01-18T02:39:47.666Z,4.90
2023-01-18T02:42:43.112Z,4.53
2023-01-18T02:45:50.178Z,4.80
2023-01-18T02:48:21.313Z,4.40
2023-01-18T02:50:49.937Z,4.93
2023-01-18T02:53:17.566Z,5.30
2023-01-18T02:56:09.395Z,4.90
2023-01-18T02:58:46.632Z,5.05
2023-01-18T03:01:30.365Z,5.85
2023-01-18T03:04:04.963Z,6.00
2023-01-18T03:06:33.411Z,6.18
2023-01-18T03:09:03.454Z,5.95
2023-01-18T03:11:44.119Z,5.65
2023-01-18T03:14:27.686Z,5.82
2023-01-18T03:17:17.671Z,6.47
2023-01-18T03:20:06.274Z,6.90
2023-01-18T03:23:07.179Z,6.55
2023-01-18T03:25:38.175Z,6.93
2023-01-18T03:28:29.080Z,6.32
2023-01-18T03:31:18.694Z,6.15
2023-01-18T03:33:52.179Z,5.22
2023-01-18T03:36:28.572Z,5.57
2023-01-18T03:39:03.392Z,5.07
2023-01-18T03:41:36.686Z,4.15
2023-01-18T03:44:10.602Z,4.13
2023-01-18T03:46:39.731Z,4.03
2023-01-18T03:49:10.381Z,4.18
2023-01-18T03:51:56.017Z,3.97
2023-01-18T03:54:33.964Z,3.03
2023-01-18T03:57:07.464Z,2.90
2023-01-18T03:59:39.334Z,3.35
2023-01-18T04:02:08.562Z,3.35
2023-01-18T04:04:36.071Z,3.08
2023-01-18T04:07:04.044Z,3.00
2023-01-18T04:09:30.993Z,2.97
2023-01-18T04:11:59.143Z,3.38
2023-01-18T04:14:26.233Z,3.03
2023-01-18T04:16:53.653Z,3.75
2023-01-18T04:19:20.703Z,3.05
2023-01-18T04:21:47.924Z,3.00
2023-01-18T04:24:17.328Z,2.80
2023-01-18T04:26:44.780Z,3.13
2023-01-18T04:29:12.319Z,2.80
2023-01-18T04:31:39.583Z,3.25
2023-01-18T04:34:06.618Z,2.90
2023-01-18T04:36:33.889Z,3.20
2023-01-18T04:39:00.832Z,3.25
2023-01-18T04:41:31.259Z,3.45
2023-01-18T04:43:58.350Z,3.40
2023-01-18T04:46:25.897Z,3.28
2023-01-18T04:48:52.998Z,3.53
2023-01-18T04:51:20.786Z,3.38
2023-01-18T04:53:48.112Z,3.30
2023-01-18T04:56:17.219Z,3.92
2023-01-18T04:58:44.847Z,3.88
2023-01-18T05:01:14.008Z,4.07
2023-01-18T05:03:41.435Z,4.07
2023-01-18T05:06:11.053Z,4.10
2023-01-18T05:08:41.960Z,4.22
2023-01-18T05:11:12.485Z,4.80
2023-01-18T05:13:40.453Z,4.63
2023-01-18T05:16:12.684Z,5.25
2023-01-18T05:18:39.712Z,5.47
2023-01-18T05:21:06.969Z,5.72
2023-01-18T05:23:36.523Z,6.63
2023-01-18T05:26:04.826Z,6.43
2023-01-18T05:28:31.830Z,7.00
2023-01-18T05:30:59.147Z,7.15
2023-01-18T05:33:26.119Z,7.28
2023-01-18T05:35:55.149Z,7.43
2023-01-18T05:38:23.497Z,8.20
2023-01-18T05:40:53.329Z,8.32
2023-01-18T05:43:22.291Z,7.80
2023-01-18T05:45:49.674Z,7.70
2023-01-18T05:48:17.431Z,7.72
2023-01-18T05:50:46.553Z,8.88
2023-01-18T05:53:15.963Z,8.70
2023-01-18T05:55:43.555Z,8.18
2023-01-18T05:58:11.766Z,6.47
2023-01-18T06:00:39.065Z,6.53
2023-01-18T06:03:10.770Z,5.88
2023-01-18T06:05:40.821Z,6.35
2023-01-18T06:08:07.875Z,6.45
2023-01-18T06:10:35.228Z,6.57
2023-01-18T06:13:03.031Z,7.30
2023-01-18T06:15:30.456Z,7.00
2023-01-18T06:17:58.029Z,7.40
2023-01-18T06:20:26.866Z,8.13
2023-01-18T06:22:53.800Z,9.15
2023-01-18T06:25:21.887Z,8.73
2023-01-18T06:27:51.150Z,8.73
2023-01-18T06:30:19.036Z,8.52
2023-01-18T06:32:46.074Z,8.75
2023-01-18T06:35:13.482Z,7.35
2023-01-18T06:37:42.843Z,6.05
2023-01-18T06:40:11.023Z,6.05
2023-01-18T06:42:38.919Z,5.75
2023-01-18T06:45:06.903Z,5.80
2023-01-18T06:47:34.996Z,5.50
2023-01-18T06:50:02.737Z,5.13
2023-01-18T06:52:29.773Z,5.57
2023-01-18T06:54:57.267Z,5.18
2023-01-18T06:57:24.795Z,5.32
2023-01-18T06:59:53.490Z,6.13
2023-01-18T07:02:21.366Z,5.57
2023-01-18T07:04:48.854Z,6.13
2023-01-18T07:07:18.243Z,6.85
2023-01-18T07:09:45.639Z,6.57
2023-01-18T07:12:15.145Z,7.30
2023-01-18T07:14:42.679Z,7.13
2023-01-18T07:17:09.849Z,7.65
2023-01-18T07:19:37.185Z,7.55
2023-01-18T07:22:06.682Z,7.68
2023-01-18T07:24:34.079Z,8.30
2023-01-18T07:27:01.217Z,8.38
2023-01-18T07:29:28.984Z,7.97
2023-01-18T07:31:56.357Z,9.85
2023-01-18T07:34:25.902Z,9.32
2023-01-18T07:36:53.441Z,9.85
2023-01-18T07:39:20.989Z,9.68
2023-01-18T07:41:50.236Z,11.38
2023-01-18T07:44:18.878Z,12.05
2023-01-18T07:46:46.891Z,12.13
2023-01-18T07:49:15.692Z,12.63
2023-01-18T07:51:42.789Z,12.98
2023-01-18T07:54:10.159Z,13.50
2023-01-18T07:56:37.740Z,13.68
2023-01-18T07:59:05.088Z,13.20
2023-01-18T08:01:32.474Z,13.75
2023-01-18T08:03:59.945Z,14.18
2023-01-18T08:06:27.395Z,13.98
2023-01-18T08:08:56.320Z,14.10
2023-01-18T08:11:23.532Z,13.95
2023-01-18T08:13:52.763Z,13.68
2023-01-18T08:16:20.190Z,13.60
2023-01-18T08:18:51.134Z,13.95
2023-01-18T08:21:18.630Z,12.85
2023-01-18T08:23:45.956Z,13.70
2023-01-18T08:26:15.150Z,11.02
2023-01-18T08:28:44.865Z,11.63
2023-01-18T08:31:17.128Z,11.55
2023-01-18T08:33:46.968Z,10.85
2023-01-18T08:36:17.227Z,11.85
2023-01-18T08:38:59.493Z,10.80
2023-01-18T08:41:30.672Z,10.40
2023-01-18T08:43:59.682Z,8.73
2023-01-18T08:46:26.814Z,8.02
2023-01-18T08:48:57.479Z,7.63
2023-01-18T08:51:26.288Z,8.50
2023-01-18T08:53:58.819Z,7.07
2023-01-18T08:56:26.722Z,7.57
2023-01-18T08:58:54.606Z,7.70
2023-01-18T09:01:23.787Z,6.80
2023-01-18T09:03:55.232Z,6.57
2023-01-18T09:06:25.692Z,6.55
2023-01-18T09:08:53.397Z,6.50
2023-01-18T09:11:22.648Z,6.65
2023-01-18T09:14:00.798Z,5.22
2023-01-18T09:16:29.682Z,5.70
2023-01-18T09:18:58.454Z,5.50
2023-01-18T09:21:29.282Z,4.95
2023-01-18T09:23:57.112Z,5.38
2023-01-18T09:26:24.165Z,5.10
2023-01-18T09:28:53.480Z,4.53
2023-01-18T09:31:22.521Z,4.70
2023-01-18T09:33:53.585Z,5.35
2023-01-18T09:36:26.649Z,4.68
2023-01-18T09:39:00.118Z,5.13
2023-01-18T09:41:47.042Z,4.70
2023-01-18T09:44:19.440Z,5.18
2023-01-18T09:46:54.119Z,4.50
2023-01-18T09:49:52.227Z,4.90
2023-01-18T09:52:31.909Z,4.72
2023-01-18T09:55:23.224Z,4.78
2023-01-18T09:58:12.496Z,4.20
2023-01-18T10:00:47.626Z,4.50
2023-01-18T10:03:32.919Z,4.53
2023-01-18T10:06:09.517Z,4.22
2023-01-18T10:09:00.605Z,4.38
2023-01-18T10:11:47.448Z,4.53
2023-01-18T10:14:17.555Z,3.92
2023-01-18T10:16:51.093Z,4.18
2023-01-18T10:19:24.536Z,4.63
2023-01-18T10:22:13.687Z,3.83
2023-01-18T10:24:57.583Z,4.32
2023-01-18T10:28:04.149Z,3.83
2023-01-18T10:31:05.324Z,4.50
2023-01-18T10:33:40.989Z,4.30
2023-01-18T10:36:16.105Z,4.13
2023-01-18T10:38:44.777Z,3.72
2023-01-18T10:41:28.506Z,3.78
2023-01-18T10:43:56.698Z,4.32
2023-01-18T10:46:23.755Z,4.07
2023-01-18T10:48:52.968Z,3.88
2023-01-18T10:51:31.283Z,3.78
2023-01-18T10:53:59.141Z,3.65
2023-01-18T10:56:28.467Z,3.40
2023-01-18T10:59:00.860Z,3.10
2023-01-18T11:01:37.305Z,2.55
2023-01-18T11:04:08.138Z,2.35
2023-01-18T11:06:56.769Z,2.35
2023-01-18T11:09:51.867Z,1.80
2023-01-18T11:12:36.543Z,2.30
2023-01-18T11:15:16.151Z,1.35
2023-01-18T11:18:03.359Z,1.70
2023-01-18T11:20:30.652Z,1.70
2023-01-18T11:23:01.682Z,1.60
2023-01-18T11:25:40.581Z,1.70
2023-01-18T11:28:20.115Z,1.40
2023-01-18T11:31:13.220Z,1.38
2023-01-18T11:33:51.098Z,1.38
2023-01-18T11:36:20.872Z,1.27
2023-01-18T11:38:48.353Z,1.42
2023-01-18T11:41:19.688Z,1.27
2023-01-18T11:44:03.856Z,1.60
2023-01-18T11:46:45.206Z,1.25
2023-01-18T11:49:24.549Z,0.90
2023-01-18T11:52:02.043Z,1.05
2023-01-18T11:54:37.309Z,0.93
2023-01-18T11:57:05.126Z,1.30
2023-01-18T11:59:36.392Z,1.55
2023-01-18T12:02:35.023Z,1.63
2023-01-18T12:05:25.714Z,1.60
2023-01-18T12:08:11.554Z,1.42
2023-01-18T12:11:10.772Z,1.35
2023-01-18T12:13:41.402Z,1.00
2023-01-18T12:16:15.099Z,1.00
2023-01-18T12:19:11.104Z,1.60
2023-01-18T12:22:03.883Z,0.50
2023-01-18T12:25:04.650Z,0.70
2023-01-18T12:27:43.464Z,1.25
2023-01-18T12:30:22.933Z,0.73
2023-01-18T12:33:42.344Z,0.95
2023-01-18T12:36:39.135Z,0.73
2023-01-18T12:40:14.114Z,0.63
2023-01-18T12:43:02.110Z,0.40
2023-01-18T12:45:47.927Z,0.50
2023-01-18T12:48:20.745Z,0.35
2023-01-18T12:50:50.023Z,0.55
2023-01-18T12:53:53.627Z,0.20
2023-01-18T12:56:26.393Z,0.28
2023-01-18T12:59:00.369Z,0.30
2023-01-18T13:01:34.776Z,0.30
2023-01-18T13:04:08.642Z,0.20
2023-01-18T13:06:38.413Z,0.30
2023-01-18T13:09:34.546Z,0.20
2023-01-18T13:12:04.261Z,0.30
2023-01-18T13:14:49.165Z,0.52
2023-01-18T13:17:41.653Z,0.63
2023-01-18T13:20:11.913Z,0.43
2023-01-18T13:22:53.704Z,0.40
2023-01-18T13:25:35.862Z,0.63
2023-01-18T13:28:13.973Z,0.20
2023-01-18T13:30:56.649Z,0.30
2023-01-18T13:33:36.534Z,0.43
2023-01-18T13:36:17.500Z,0.50
2023-01-18T13:38:52.476Z,0.55
2023-01-18T13:41:29.462Z,0.90
2023-01-18T13:44:27.013Z,1.48
2023-01-18T13:46:59.276Z,0.77
2023-01-18T13:49:38.458Z,1.00
2023-01-18T13:52:32.581Z,0.77
2023-01-18T13:55:02.678Z,0.40
2023-01-18T13:57:32.488Z,0.47
2023-01-18T14:00:01.466Z,0.30
2023-01-18T14:02:42.404Z,0.43
2023-01-18T14:05:45.239Z,0.40
2023-01-18T14:08:22.696Z,0.40
2023-01-18T14:10:53.734Z,0.52
2023-01-18T14:13:48.391Z,0.50
2023-01-18T14:16:21.167Z,0.30
2023-01-18T14:18:56.855Z,0.50
2023-01-18T14:21:46.758Z,0.60
2023-01-18T14:24:32.846Z,0.40
2023-01-18T14:27:03.763Z,0.40
2023-01-18T14:29:49.548Z,0.47
2023-01-18T14:32:27.555Z,0.40
2023-01-18T14:35:04.454Z,0.80
2023-01-18T14:37:34.546Z,0.40
2023-01-18T14:40:15.638Z,0.65
2023-01-18T14:42:53.218Z,0.45
2023-01-18T14:45:35.127Z,0.57
2023-01-18T14:48:19.472Z,1.00
2023-01-18T14:50:50.621Z,1.20
2023-01-18T14:53:26.064Z,1.42
2023-01-18T14:56:16.817Z,0.82
2023-01-18T14:58:56.020Z,0.93
2023-01-18T15:01:37.417Z,1.13
2023-01-18T15:04:19.663Z,1.17
2023-01-18T15:06:57.499Z,0.80
2023-01-18T15:09:30.546Z,1.10
2023-01-18T15:12:01.230Z,1.20
2023-01-18T15:14:35.836Z,2.85
2023-01-18T15:17:10.897Z,1.42
2023-01-18T15:19:44.890Z,2.20
2023-01-18T15:22:15.598Z,2.08
2023-01-18T15:24:45.225Z,2.28
2023-01-18T15:27:20.341Z,2.20
2023-01-18T15:29:58.241Z,1.77
2023-01-18T15:32:25.915Z,1.83
2023-01-18T15:34:55.143Z,2.40
2023-01-18T15:37:31.271Z,3.42
2023-01-18T15:42:38.765Z,3.25
2023-01-18T15:45:18.601Z,3.22
2023-01-18T15:47:52.122Z,3.67
2023-01-18T15:50:22.049Z,3.28
2023-01-18T15:53:02.064Z,2.67
2023-01-18T15:55:35.238Z,2.92
2023-01-18T15:58:07.129Z,2.30
2023-01-18T16:00:41.108Z,2.33
2023-01-18T16:03:36.790Z,2.35
2023-01-18T16:06:17.556Z,2.40
2023-01-18T16:09:12.143Z,3.15
2023-01-18T16:11:43.107Z,2.85
2023-01-18T16:14:28.860Z,3.17
2023-01-18T16:16:58.465Z,3.05
2023-01-18T16:19:49.253Z,2.78
2023-01-18T16:22:30.116Z,3.42
2023-01-18T16:25:03.244Z,3.67
2023-01-18T16:27:32.522Z,3.20
2023-01-18T16:30:37.589Z,3.42
2023-01-18T16:33:09.487Z,3.03
2023-01-18T16:35:39.995Z,2.65
2023-01-18T16:38:15.705Z,2.92
2023-01-18T16:40:46.543Z,2.60
2023-01-18T16:43:24.163Z,3.20
2023-01-18T16:45:55.094Z,2.90
2023-01-18T16:48:24.976Z,5.10
2023-01-18T16:50:53.058Z,3.80
2023-01-18T16:53:24.465Z,3.97
2023-01-18T16:55:52.127Z,4.60
2023-01-18T16:58:21.389Z,4.72
2023-01-18T17:00:58.934Z,4.18
2023-01-18T17:03:27.583Z,4.60
2023-01-18T17:05:55.694Z,4.57
2023-01-18T17:08:23.921Z,7.88
2023-01-18T17:10:52.321Z,9.45
2023-01-18T17:13:19.801Z,9.32
2023-01-18T17:15:47.447Z,7.43
2023-01-18T17:18:17.572Z,7.25
2023-01-18T17:20:45.174Z,6.15
2023-01-18T17:23:12.690Z,6.75
2023-01-18T17:25:42.864Z,5.43
2023-01-18T17:28:16.324Z,4.80
2023-01-18T17:30:47.324Z,4.85
2023-01-18T17:33:20.734Z,9.02
2023-01-18T17:35:54.097Z,15.60
2023-01-18T17:38:26.324Z,14.18
2023-01-18T17:40:56.832Z,14.15
2023-01-18T17:43:40.046Z,15.45
2023-01-18T17:46:08.347Z,22.70
2023-01-18T17:48:36.745Z,23.63
2023-01-18T17:51:09.436Z,21.17
2023-01-18T17:53:44.361Z,19.67
2023-01-18T17:56:15.616Z,18.17
2023-01-18T17:58:47.954Z,15.63
2023-01-18T18:01:17.733Z,15.45
2023-01-18T18:03:48.544Z,14.50
2023-01-18T18:06:30.218Z,13.15
2023-01-18T18:08:59.291Z,10.45
2023-01-18T18:11:28.883Z,9.10
2023-01-18T18:14:00.455Z,8.98
2023-01-18T18:16:31.527Z,8.27
2023-01-18T18:19:00.800Z,7.63
2023-01-18T18:21:34.725Z,6.47
2023-01-18T18:24:03.584Z,6.32
2023-01-18T18:26:34.923Z,6.60
2023-01-18T18:29:04.457Z,8.30
2023-01-18T18:31:35.919Z,7.20
2023-01-18T18:34:07.116Z,7.13
2023-01-18T18:36:37.963Z,5.25
2023-01-18T18:39:10.050Z,6.15
2023-01-18T18:41:39.332Z,5.60
2023-01-18T18:44:06.839Z,5.28
2023-01-18T18:46:37.112Z,5.38
2023-01-18T18:49:05.113Z,5.32
2023-01-18T18:51:35.831Z,5.75
2023-01-18T18:54:07.960Z,5.43
2023-01-18T18:56:45.751Z,5.10
2023-01-18T18:59:14.154Z,5.28
2023-01-18T19:01:42.236Z,5.07
2023-01-18T19:04:12.841Z,5.40
2023-01-18T19:06:41.145Z,6.68
2023-01-18T19:09:09.974Z,7.53
2023-01-18T19:11:41.621Z,8.50
2023-01-18T19:14:14.114Z,9.23
2023-01-18T19:16:42.377Z,12.90
2023-01-18T19:19:10.793Z,10.35
2023-01-18T19:21:39.882Z,11.18
2023-01-18T19:24:07.551Z,19.48
2023-01-18T19:26:35.957Z,24.58
2023-01-18T19:29:07.384Z,22.73
2023-01-18T19:31:35.438Z,20.17
2023-01-18T19:34:03.691Z,17.17
2023-01-18T19:36:33.945Z,15.45
2023-01-18T19:39:03.513Z,12.05
2023-01-18T19:41:33.593Z,10.73
2023-01-18T19:44:03.266Z,12.63
2023-01-18T19:46:31.541Z,13.13
2023-01-18T19:49:03.748Z,12.85
2023-01-18T19:51:41.871Z,9.57
2023-01-18T19:54:14.029Z,11.02
2023-01-18T19:56:42.255Z,13.00
2023-01-18T19:59:12.242Z,12.30
2023-01-18T20:01:41.677Z,10.88
2023-01-18T20:04:10.995Z,10.40
2023-01-18T20:06:40.084Z,9.95
2023-01-18T20:09:19.093Z,9.63
2023-01-18T20:13:28.229Z,11.77
2023-01-18T20:15:56.909Z,9.95
2023-01-18T20:18:27.235Z,9.23
2023-01-18T20:20:57.115Z,7.80
2023-01-18T20:23:27.659Z,8.13
2023-01-18T20:25:57.258Z,8.40
2023-01-18T20:28:28.761Z,10.45
2023-01-18T20:30:57.151Z,9.38
2023-01-18T20:33:27.622Z,9.43
2023-01-18T20:35:56.389Z,8.88
2023-01-18T20:38:24.931Z,8.35
2023-01-18T20:40:54.806Z,7.20
2023-01-18T20:43:22.884Z,7.78
2023-01-18T20:46:02.316Z,7.15
2023-01-18T20:48:34.152Z,7.30
2023-01-18T20:51:02.275Z,6.10
2023-01-18T20:53:32.613Z,5.45
2023-01-18T20:56:11.920Z,4.78
2023-01-18T20:58:53.445Z,4.63
2023-01-18T21:01:21.343Z,4.70
2023-01-18T21:03:56.956Z,4.97
2023-01-18T21:06:30.655Z,4.50
2023-01-18T21:09:04.046Z,5.18
2023-01-18T21:11:31.929Z,5.93
2023-01-18T21:13:59.439Z,6.07
2023-01-18T21:16:28.205Z,6.35
2023-01-18T21:19:01.768Z,6.22
2023-01-18T21:21:32.124Z,6.90
2023-01-18T21:24:00.246Z,6.63
2023-01-18T21:26:28.558Z,5.95
2023-01-18T21:28:56.021Z,5.78
2023-01-18T21:31:25.996Z,5.43
2023-01-18T21:33:54.674Z,5.80
2023-01-18T21:36:23.082Z,5.22
2023-01-18T21:38:50.690Z,5.05
2023-01-18T21:41:36.521Z,4.78
2023-01-18T21:44:22.080Z,2.83
2023-01-18T21:46:51.907Z,3.60
2023-01-18T21:50:16.168Z,4.75
2023-01-18T21:52:44.706Z,5.63
2023-01-18T21:55:12.686Z,5.07
2023-01-18T21:57:40.050Z,6.03
2023-01-18T22:00:13.711Z,5.63
2023-01-18T22:02:41.130Z,5.55
2023-01-18T22:05:09.933Z,5.20
2023-01-18T22:07:37.277Z,5.78
2023-01-18T22:10:06.837Z,6.68
2023-01-18T22:12:36.171Z,6.47
2023-01-18T22:15:04.848Z,5.63
2023-01-18T22:17:32.546Z,4.45
2023-01-18T22:20:00.383Z,4.93
2023-01-18T22:22:28.287Z,3.97
2023-01-18T22:24:56.664Z,3.70
2023-01-18T22:27:24.356Z,3.80
2023-01-18T22:29:51.414Z,3.60
2023-01-18T22:32:21.823Z,3.63
2023-01-18T22:34:48.810Z,4.15
2023-01-18T22:37:16.091Z,3.75
2023-01-18T22:39:43.417Z,4.05
2023-01-18T22:42:13.103Z,4.05
2023-01-18T22:44:40.156Z,4.13
2023-01-18T22:47:07.817Z,3.70
2023-01-18T22:49:34.806Z,3.78
2023-01-18T22:52:02.176Z,3.83
2023-01-18T22:54:29.288Z,4.03
2023-01-18T22:56:56.761Z,4.00
2023-01-18T22:59:24.035Z,4.20
2023-01-18T23:01:51.474Z,4.13
2023-01-18T23:04:19.272Z,3.97
2023-01-18T23:06:47.895Z,4.15
2023-01-18T23:09:17.629Z,4.03
2023-01-18T23:11:45.749Z,4.03
2023-01-18T23:14:31.503Z,4.95
2023-01-18T23:17:17.227Z,5.10
2023-01-18T23:19:44.292Z,4.03
2023-01-18T23:22:11.628Z,5.68
2023-01-18T23:24:41.825Z,4.70
2023-01-18T23:27:12.510Z,5.18
2023-01-18T23:29:39.955Z,5.20
2023-01-18T23:32:08.111Z,5.35
2023-01-18T23:34:35.387Z,5.35
2023-01-18T23:37:03.128Z,5.55
2023-01-18T23:39:48.724Z,5.57
2023-01-18T23:42:34.903Z,5.35
2023-01-18T23:45:20.724Z,5.43
2023-01-18T23:48:07.179Z,5.68
2023-01-18T23:50:52.794Z,5.90
2023-01-18T23:53:39.196Z,5.55
2023-01-18T23:56:06.948Z,4.88
2023-01-18T23:58:34.376Z,5.72
